createdAt,value
2019-03-20T00:00:36.828Z,16.20
2019-03-20T00:03:05.645Z,16.20
2019-03-20T00:05:34.274Z,16.20
2019-03-20T00:08:02.940Z,16.20
2019-03-20T00:10:31.812Z,16.20
2019-03-20T00:13:00.497Z,16.10
2019-03-20T00:15:29.189Z,16.20
2019-03-20T00:17:57.797Z,16.10
2019-03-20T00:20:26.415Z,16.10
2019-03-20T00:22:55.273Z,16.10
2019-03-20T00:25:23.900Z,16.10
2019-03-20T00:27:52.572Z,16.10
2019-03-20T00:30:21.195Z,16.00
2019-03-20T00:32:49.875Z,16.10
2019-03-20T00:35:18.556Z,16.10
2019-03-20T00:37:47.188Z,16.10
2019-03-20T00:40:15.916Z,16.10
2019-03-20T00:42:44.526Z,16.10
2019-03-20T00:45:13.297Z,16.10
2019-03-20T00:47:42.165Z,16.10
2019-03-20T00:50:13.578Z,16.10
2019-03-20T00:52:42.526Z,16.10
2019-03-20T00:55:11.337Z,16.10
2019-03-20T00:57:39.948Z,16.10
2019-03-20T01:00:11.913Z,16.10
2019-03-20T01:02:40.821Z,16.10
2019-03-20T01:05:12.766Z,16.10
2019-03-20T01:07:39.761Z,16.10
2019-03-20T01:10:10.172Z,16.00
2019-03-20T01:12:38.829Z,16.10
2019-03-20T01:15:08.395Z,16.00
2019-03-20T01:17:37.077Z,16.00
2019-03-20T01:20:05.794Z,16.00
2019-03-20T01:22:34.381Z,16.00
2019-03-20T01:25:03.264Z,16.10
2019-03-20T01:27:31.948Z,16.00
2019-03-20T01:30:00.575Z,16.00
2019-03-20T01:32:29.269Z,16.00
2019-03-20T01:34:57.889Z,16.00
2019-03-20T01:37:26.858Z,16.00
2019-03-20T01:39:56.031Z,16.00
2019-03-20T01:42:24.966Z,16.00
2019-03-20T01:44:53.562Z,16.00
2019-03-20T01:47:22.185Z,16.00
2019-03-20T01:49:50.862Z,16.00
2019-03-20T01:52:19.821Z,16.00
2019-03-20T01:54:48.429Z,16.00
2019-03-20T01:57:17.152Z,16.00
2019-03-20T01:59:46.089Z,16.00
2019-03-20T02:02:14.780Z,15.90
2019-03-20T02:04:43.377Z,15.90
2019-03-20T02:07:12.342Z,15.90
2019-03-20T02:09:41.076Z,15.90
2019-03-20T02:12:09.697Z,15.90
2019-03-20T02:14:38.553Z,15.90
2019-03-20T02:17:07.168Z,15.90
2019-03-20T02:19:36.021Z,15.90
2019-03-20T02:22:04.712Z,15.90
2019-03-20T02:24:33.318Z,15.90
2019-03-20T02:27:02.014Z,15.90
2019-03-20T02:29:30.755Z,15.90
2019-03-20T02:31:59.369Z,15.90
2019-03-20T02:34:28.075Z,15.90
2019-03-20T02:36:56.929Z,15.90
2019-03-20T02:39:25.525Z,15.90
2019-03-20T02:41:54.210Z,15.90
2019-03-20T02:44:23.153Z,15.90
2019-03-20T02:46:52.043Z,15.90
2019-03-20T02:49:20.716Z,15.80
2019-03-20T02:51:49.401Z,15.90
2019-03-20T02:54:18.081Z,15.80
2019-03-20T02:56:46.696Z,15.90
2019-03-20T02:59:15.626Z,15.90
2019-03-20T03:01:44.321Z,15.90
2019-03-20T03:04:13.541Z,15.90
2019-03-20T03:06:42.219Z,15.90
2019-03-20T03:09:10.884Z,15.90
2019-03-20T03:11:39.507Z,15.80
2019-03-20T03:14:08.194Z,15.90
2019-03-20T03:16:36.879Z,15.80
2019-03-20T03:19:05.559Z,15.80
2019-03-20T03:21:34.250Z,15.80
2019-03-20T03:24:02.915Z,15.80
2019-03-20T03:26:31.883Z,15.80
2019-03-20T03:29:00.558Z,15.80
2019-03-20T03:31:29.234Z,15.80
2019-03-20T03:33:58.209Z,15.80
2019-03-20T03:36:26.875Z,15.80
2019-03-20T03:38:55.556Z,15.80
2019-03-20T03:41:24.151Z,15.80
2019-03-20T03:43:52.809Z,15.80
2019-03-20T03:46:21.473Z,15.80
2019-03-20T03:48:50.434Z,15.80
2019-03-20T03:51:19.369Z,15.80
2019-03-20T03:53:48.310Z,15.80
2019-03-20T03:56:17.348Z,15.80
2019-03-20T03:58:46.041Z,15.80
2019-03-20T04:01:14.730Z,15.80
2019-03-20T04:03:43.401Z,15.80
2019-03-20T04:06:12.318Z,15.80
2019-03-20T04:08:41.231Z,15.80
2019-03-20T04:11:09.900Z,15.80
2019-03-20T04:13:38.588Z,15.80
2019-03-20T04:16:07.516Z,15.80
2019-03-20T04:18:36.220Z,15.80
2019-03-20T04:21:05.175Z,15.80
2019-03-20T04:23:33.865Z,15.80
2019-03-20T04:26:02.551Z,15.80
2019-03-20T04:28:31.236Z,15.80
2019-03-20T04:30:59.946Z,15.80
2019-03-20T04:33:28.577Z,15.80
2019-03-20T04:35:57.277Z,15.80
2019-03-20T04:38:25.888Z,15.80
2019-03-20T04:40:54.569Z,15.80
2019-03-20T04:43:23.457Z,15.80
2019-03-20T04:45:52.148Z,15.70
2019-03-20T04:48:20.989Z,15.80
2019-03-20T04:50:49.604Z,15.70
2019-03-20T04:53:18.276Z,15.70
2019-03-20T04:55:46.896Z,15.70
2019-03-20T04:58:15.501Z,15.70
2019-03-20T05:00:44.160Z,15.70
2019-03-20T05:03:12.769Z,15.80
2019-03-20T05:05:41.436Z,15.80
2019-03-20T05:08:10.359Z,15.70
2019-03-20T05:10:39.036Z,15.70
2019-03-20T05:13:07.656Z,15.70
2019-03-20T05:15:36.252Z,15.70
2019-03-20T05:18:04.877Z,15.70
2019-03-20T05:20:33.492Z,15.70
2019-03-20T05:23:02.457Z,15.70
2019-03-20T05:25:31.128Z,15.70
2019-03-20T05:27:59.765Z,15.70
2019-03-20T05:30:28.436Z,15.70
2019-03-20T05:32:57.268Z,15.70
2019-03-20T05:35:26.156Z,15.60
2019-03-20T05:37:54.761Z,15.70
2019-03-20T05:40:24.205Z,15.60
2019-03-20T05:42:52.939Z,15.70
2019-03-20T05:45:21.581Z,15.70
2019-03-20T05:47:50.255Z,15.70
2019-03-20T05:50:19.248Z,15.70
2019-03-20T05:52:47.917Z,15.70
2019-03-20T05:55:16.535Z,15.70
2019-03-20T05:57:45.216Z,15.70
2019-03-20T06:00:14.999Z,15.70
2019-03-20T06:02:43.921Z,15.70
2019-03-20T06:05:12.558Z,15.70
2019-03-20T06:07:41.241Z,15.70
2019-03-20T06:10:11.349Z,15.60
2019-03-20T06:12:40.251Z,15.60
2019-03-20T06:15:08.932Z,15.60
2019-03-20T06:17:37.548Z,15.60
2019-03-20T06:20:06.303Z,15.60
2019-03-20T06:22:34.920Z,15.60
2019-03-20T06:25:03.577Z,15.60
2019-03-20T06:27:32.261Z,15.50
2019-03-20T06:30:00.870Z,15.60
2019-03-20T06:32:29.553Z,15.60
2019-03-20T06:34:58.183Z,15.70
2019-03-20T06:37:32.518Z,15.70
2019-03-20T06:39:57.450Z,15.70
2019-03-20T06:42:26.646Z,15.70
2019-03-20T06:44:55.605Z,15.70
2019-03-20T06:47:24.458Z,15.70
2019-03-20T06:49:53.053Z,15.70
2019-03-20T06:52:21.745Z,15.70
2019-03-20T06:54:50.413Z,15.70
2019-03-20T06:57:19.030Z,15.70
2019-03-20T07:00:30.629Z,15.70
2019-03-20T07:03:01.375Z,15.70
2019-03-20T07:05:52.004Z,15.70
2019-03-20T07:08:22.277Z,15.70
2019-03-20T07:11:12.270Z,15.70
2019-03-20T07:13:40.956Z,15.70
2019-03-20T07:16:09.632Z,15.70
2019-03-20T07:18:38.300Z,15.70
2019-03-20T07:21:06.916Z,15.70
2019-03-20T07:23:35.521Z,15.70
2019-03-20T07:26:04.241Z,15.70
2019-03-20T07:28:32.934Z,15.70
2019-03-20T07:31:01.967Z,15.70
2019-03-20T07:33:30.901Z,15.70
2019-03-20T07:36:00.217Z,15.70
2019-03-20T07:38:28.804Z,15.70
2019-03-20T07:40:57.757Z,15.70
2019-03-20T07:43:27.110Z,15.70
2019-03-20T07:45:55.888Z,15.70
2019-03-20T07:48:24.484Z,15.70
2019-03-20T07:50:53.352Z,15.70
2019-03-20T07:53:22.217Z,15.70
2019-03-20T07:55:50.945Z,15.70
2019-03-20T07:58:19.852Z,15.60
2019-03-20T08:00:48.478Z,15.70
2019-03-20T08:03:17.168Z,15.70
2019-03-20T08:05:46.048Z,15.80
2019-03-20T08:08:14.649Z,15.80
2019-03-20T08:10:43.348Z,15.80
2019-03-20T08:13:12.046Z,15.80
2019-03-20T08:15:40.972Z,15.80
2019-03-20T08:18:09.573Z,15.80
2019-03-20T08:20:38.682Z,15.80
2019-03-20T08:23:07.542Z,15.80
2019-03-20T08:25:36.241Z,15.80
2019-03-20T08:28:04.939Z,15.80
2019-03-20T08:30:33.890Z,15.80
2019-03-20T08:33:02.557Z,15.80
2019-03-20T08:35:31.513Z,15.80
2019-03-20T08:38:00.180Z,15.80
2019-03-20T08:40:28.796Z,15.70
2019-03-20T08:42:57.629Z,15.70
2019-03-20T08:45:26.241Z,15.60
2019-03-20T10:06:34.800Z,16.60
2019-03-20T10:09:04.846Z,16.90
2019-03-20T10:11:33.466Z,17.00
2019-03-20T10:14:02.165Z,17.10
2019-03-20T10:16:30.870Z,17.10
2019-03-20T10:18:59.556Z,17.20
2019-03-20T10:21:28.245Z,17.20
2019-03-20T10:23:57.575Z,17.20
2019-03-20T10:26:26.877Z,17.30
2019-03-20T10:28:55.854Z,17.30
2019-03-20T10:31:24.550Z,17.40
2019-03-20T10:33:53.237Z,17.40
2019-03-20T10:36:22.037Z,17.40
2019-03-20T10:38:51.028Z,17.40
2019-03-20T10:41:19.816Z,17.40
2019-03-20T10:43:48.412Z,17.40
2019-03-20T10:46:17.037Z,17.40
2019-03-20T10:48:45.729Z,17.40
2019-03-20T10:51:14.411Z,17.40
2019-03-20T10:53:43.084Z,17.40
2019-03-20T10:56:11.705Z,17.50
2019-03-20T10:58:40.577Z,17.50
2019-03-20T11:01:09.193Z,17.50
2019-03-20T11:03:37.796Z,17.50
2019-03-20T11:06:06.441Z,17.50
2019-03-20T11:08:35.040Z,17.50
2019-03-20T11:11:03.926Z,17.60
2019-03-20T11:13:33.233Z,17.60
2019-03-20T11:16:01.961Z,17.60
2019-03-20T11:18:30.855Z,17.60
2019-03-20T11:21:00.109Z,17.60
2019-03-20T11:23:28.835Z,17.60
2019-03-20T11:25:59.908Z,17.70
2019-03-20T11:28:28.028Z,17.70
2019-03-20T11:30:56.721Z,17.70
2019-03-20T11:33:25.400Z,17.70
2019-03-20T11:35:54.369Z,17.70
2019-03-20T11:38:22.980Z,17.70
2019-03-20T11:40:51.967Z,17.70
2019-03-20T11:43:20.633Z,17.80
2019-03-20T11:45:49.340Z,17.80
2019-03-20T11:48:18.027Z,17.80
2019-03-20T11:50:47.005Z,17.80
2019-03-20T11:53:15.633Z,17.80
2019-03-20T11:55:44.338Z,17.90
2019-03-20T11:58:13.087Z,17.90
2019-03-20T12:00:41.721Z,17.90
2019-03-20T12:03:10.333Z,17.90
2019-03-20T12:05:39.032Z,18.00
2019-03-20T12:08:07.743Z,18.00
2019-03-20T12:10:36.640Z,18.00
2019-03-20T12:13:05.284Z,18.00
2019-03-20T12:15:34.277Z,18.00
2019-03-20T12:18:02.972Z,18.10
2019-03-20T12:20:31.680Z,18.10
2019-03-20T12:23:00.845Z,18.00
2019-03-20T12:25:29.837Z,18.10
2019-03-20T12:27:58.464Z,18.10
2019-03-20T12:30:28.280Z,18.10
2019-03-20T12:32:57.205Z,18.10
2019-03-20T12:35:27.130Z,18.20
2019-03-20T12:37:55.880Z,18.20
2019-03-20T12:40:26.225Z,18.20
2019-03-20T12:42:54.905Z,18.20
2019-03-20T12:45:28.289Z,18.20
2019-03-20T12:47:57.027Z,18.30
2019-03-20T12:50:25.833Z,18.20
2019-03-20T12:52:54.531Z,18.20
2019-03-20T12:55:23.482Z,18.20
2019-03-20T12:57:52.094Z,18.20
2019-03-20T13:00:21.841Z,18.30
2019-03-20T13:02:50.843Z,18.30
2019-03-20T13:05:19.857Z,18.30
2019-03-20T13:07:48.601Z,18.40
2019-03-20T13:10:18.722Z,18.40
2019-03-20T13:12:47.782Z,18.40
2019-03-20T13:15:18.289Z,18.40
2019-03-20T13:17:47.001Z,18.40
2019-03-20T13:20:16.096Z,18.40
2019-03-20T13:22:45.970Z,18.30
2019-03-20T13:25:15.210Z,18.30
2019-03-20T13:27:44.201Z,18.40
2019-03-20T13:30:20.406Z,18.40
2019-03-20T13:32:49.398Z,18.40
2019-03-20T13:35:18.359Z,18.40
2019-03-20T13:37:47.042Z,18.40
2019-03-20T13:40:15.740Z,18.40
2019-03-20T13:42:44.433Z,18.40
2019-03-20T13:45:14.400Z,18.40
2019-03-20T13:47:43.537Z,18.40
2019-03-20T13:50:13.475Z,18.40
2019-03-20T13:52:42.443Z,18.40
2019-03-20T13:55:11.193Z,18.40
2019-03-20T13:57:39.876Z,18.40
2019-03-20T14:00:16.559Z,18.40
2019-03-20T14:02:45.202Z,18.50
2019-03-20T14:05:14.570Z,18.50
2019-03-20T14:07:43.254Z,18.50
2019-03-20T14:10:24.306Z,18.50
2019-03-20T14:12:44.377Z,18.50
2019-03-20T14:15:13.291Z,18.50
2019-03-20T14:17:41.988Z,18.50
2019-03-20T14:20:13.065Z,18.50
2019-03-20T14:22:41.754Z,18.50
2019-03-20T14:25:10.708Z,18.50
2019-03-20T14:27:39.308Z,18.60
2019-03-20T14:30:11.949Z,18.60
2019-03-20T14:32:40.688Z,18.50
2019-03-20T14:35:09.318Z,18.60
2019-03-20T14:37:37.994Z,18.60
2019-03-20T14:40:07.362Z,18.60
2019-03-20T14:42:36.020Z,18.60
2019-03-20T14:45:04.780Z,18.60
2019-03-20T14:47:41.881Z,18.60
2019-03-20T14:50:04.641Z,18.60
2019-03-20T14:52:33.326Z,18.60
2019-03-20T14:55:01.994Z,18.60
2019-03-20T14:57:30.640Z,18.70
2019-03-20T14:59:59.261Z,18.70
2019-03-20T15:02:28.278Z,18.70
2019-03-20T15:04:57.017Z,18.70
2019-03-20T15:07:25.668Z,18.80
2019-03-20T15:09:54.285Z,18.70
2019-03-20T15:12:22.989Z,18.70
2019-03-20T15:14:51.716Z,18.70
2019-03-20T15:17:20.468Z,18.70
2019-03-20T15:19:49.594Z,18.70
2019-03-20T15:22:18.613Z,18.70
2019-03-20T15:24:47.308Z,18.70
2019-03-20T15:27:16.297Z,18.70
2019-03-20T15:29:44.973Z,18.70
2019-03-20T15:32:13.714Z,18.70
2019-03-20T15:34:42.382Z,18.70
2019-03-20T15:37:11.333Z,18.70
2019-03-20T15:39:39.941Z,18.70
2019-03-20T15:42:08.898Z,18.70
2019-03-20T15:44:37.581Z,18.70
2019-03-20T15:47:06.278Z,18.70
2019-03-20T15:49:35.261Z,18.70
2019-03-20T15:52:04.359Z,18.70
2019-03-20T15:54:33.052Z,18.70
2019-03-20T15:57:02.142Z,18.70
2019-03-20T15:59:30.938Z,18.70
2019-03-20T16:01:59.786Z,18.70
2019-03-20T16:04:28.814Z,18.80
2019-03-20T16:06:57.786Z,18.80
2019-03-20T16:09:26.433Z,18.90
2019-03-20T16:11:55.138Z,18.80
2019-03-20T16:14:23.817Z,18.80
2019-03-20T16:16:52.797Z,18.90
2019-03-20T16:19:21.520Z,18.90
2019-03-20T16:21:50.578Z,18.90
2019-03-20T16:24:19.190Z,18.90
2019-03-20T16:26:47.825Z,18.90
2019-03-20T16:29:16.879Z,18.90
2019-03-20T16:31:45.572Z,18.90
2019-03-20T16:34:14.181Z,18.90
2019-03-20T16:36:42.816Z,18.90
2019-03-20T16:39:11.733Z,19.00
2019-03-20T16:41:40.467Z,18.90
2019-03-20T16:44:09.484Z,18.90
2019-03-20T16:46:38.129Z,18.90
2019-03-20T16:49:06.757Z,18.90
2019-03-20T16:51:35.465Z,18.80
2019-03-20T16:54:04.364Z,18.90
2019-03-20T16:56:33.055Z,18.80
2019-03-20T16:59:02.005Z,18.80
2019-03-20T17:01:30.664Z,18.80
2019-03-20T17:03:59.273Z,18.80
2019-03-20T17:06:27.913Z,18.80
2019-03-20T17:08:56.576Z,18.80
2019-03-20T17:11:34.473Z,18.70
2019-03-20T17:13:56.193Z,18.70
2019-03-20T17:16:24.897Z,18.60
2019-03-20T17:18:53.797Z,18.60
2019-03-20T17:21:22.633Z,18.50
2019-03-20T17:23:51.730Z,18.50
2019-03-20T17:26:20.726Z,18.40
2019-03-20T17:28:49.724Z,18.50
2019-03-20T17:31:18.433Z,18.50
2019-03-20T17:33:47.048Z,18.40
2019-03-20T17:36:15.696Z,18.40
2019-03-20T17:38:44.772Z,18.30
2019-03-20T17:41:13.481Z,18.30
2019-03-20T17:43:42.449Z,18.20
2019-03-20T17:46:11.160Z,18.20
2019-03-20T17:48:40.117Z,18.20
2019-03-20T17:51:08.768Z,18.20
2019-03-20T17:53:37.418Z,18.20
2019-03-20T17:56:06.087Z,18.20
2019-03-20T17:58:34.785Z,18.10
2019-03-20T18:01:03.492Z,18.10
2019-03-20T18:03:32.769Z,18.10
2019-03-20T18:06:01.488Z,18.00
2019-03-20T18:08:30.253Z,18.00
2019-03-20T18:10:59.224Z,18.00
2019-03-20T18:13:27.853Z,18.00
2019-03-20T18:15:56.480Z,17.90
2019-03-20T18:18:25.094Z,17.90
2019-03-20T18:20:53.797Z,17.90
2019-03-20T18:23:22.496Z,17.90
2019-03-20T18:25:51.108Z,17.90
2019-03-20T18:28:21.691Z,17.90
2019-03-20T18:30:50.109Z,17.80
2019-03-20T18:33:18.800Z,17.80
2019-03-20T18:35:48.145Z,17.80
2019-03-20T18:38:17.153Z,17.80
2019-03-20T18:40:45.904Z,17.70
2019-03-20T18:43:14.646Z,17.80
2019-03-20T18:45:43.597Z,17.70
2019-03-20T18:48:12.589Z,17.70
2019-03-20T18:50:41.581Z,17.70
2019-03-20T18:53:10.476Z,17.70
2019-03-20T18:55:39.212Z,17.70
2019-03-20T18:58:07.964Z,17.70
2019-03-20T19:00:36.954Z,17.60
2019-03-20T19:03:06.325Z,17.70
2019-03-20T19:05:56.318Z,17.70
2019-03-20T19:08:25.336Z,17.60
2019-03-20T19:10:54.468Z,17.60
2019-03-20T19:13:24.529Z,17.60
2019-03-20T19:15:53.310Z,17.60
2019-03-20T19:18:21.983Z,17.60
2019-03-20T19:20:50.907Z,17.60
2019-03-20T19:23:19.898Z,17.60
2019-03-20T19:25:48.637Z,17.60
2019-03-20T19:28:17.681Z,17.60
2019-03-20T19:30:46.412Z,17.60
2019-03-20T19:33:15.025Z,17.60
2019-03-20T19:35:43.728Z,17.50
2019-03-20T19:38:12.413Z,17.60
2019-03-20T19:40:41.422Z,17.50
2019-03-20T19:43:10.354Z,17.50
2019-03-20T19:45:39.405Z,17.60
2019-03-20T19:48:08.091Z,17.50
2019-03-20T19:50:36.816Z,17.50
2019-03-20T19:53:05.720Z,17.50
2019-03-20T19:55:34.438Z,17.50
2019-03-20T19:58:03.164Z,17.50
2019-03-20T20:00:31.869Z,17.50
2019-03-20T20:03:00.658Z,17.50
2019-03-20T20:05:29.449Z,17.50
2019-03-20T20:07:58.093Z,17.50
2019-03-20T20:10:27.085Z,17.50
2019-03-20T20:12:55.776Z,17.40
2019-03-20T20:15:24.488Z,17.40
2019-03-20T20:17:53.468Z,17.50
2019-03-20T20:20:22.176Z,17.50
2019-03-20T20:22:50.849Z,17.40
2019-03-20T20:25:19.481Z,17.40
2019-03-20T20:27:48.162Z,17.40
2019-03-20T20:30:17.254Z,17.40
2019-03-20T20:32:45.941Z,17.40
2019-03-20T20:35:14.970Z,17.40
2019-03-20T20:37:43.642Z,17.40
2019-03-20T20:40:13.965Z,17.40
2019-03-20T20:42:43.442Z,17.40
2019-03-20T20:45:12.298Z,17.40
2019-03-20T20:47:40.893Z,17.40
2019-03-20T20:50:09.737Z,17.30
2019-03-20T20:52:38.637Z,17.40
2019-03-20T20:55:08.155Z,17.30
2019-03-20T20:57:36.842Z,17.30
2019-03-20T21:00:08.500Z,17.30
2019-03-20T21:02:37.195Z,17.30
2019-03-20T21:05:06.277Z,17.30
2019-03-20T21:07:35.270Z,17.30
2019-03-20T21:10:04.216Z,17.30
2019-03-20T21:12:33.153Z,17.30
2019-03-20T21:15:02.145Z,17.30
2019-03-20T21:17:59.349Z,17.30
2019-03-20T21:20:28.804Z,17.30
2019-03-20T21:23:48.489Z,17.30
2019-03-20T21:26:18.128Z,17.30
2019-03-20T21:29:24.701Z,17.30
2019-03-20T21:32:02.606Z,17.20
2019-03-20T21:35:02.306Z,17.20
2019-03-20T21:38:05.808Z,17.10
2019-03-20T21:41:06.621Z,17.20
2019-03-20T21:43:52.231Z,17.20
2019-03-20T21:47:09.444Z,17.20
2019-03-20T21:49:38.950Z,17.20
2019-03-20T21:52:08.188Z,17.10
2019-03-20T21:55:29.801Z,17.10
2019-03-20T21:58:13.011Z,17.00
2019-03-20T22:01:32.436Z,17.10
2019-03-20T22:04:01.592Z,17.10
2019-03-20T22:07:07.023Z,17.10
2019-03-20T22:10:19.514Z,17.10
2019-03-20T22:13:23.678Z,17.10
2019-03-20T22:16:14.837Z,17.00
2019-03-20T22:19:28.257Z,16.90
2019-03-20T22:22:34.599Z,16.90
2019-03-20T22:25:30.965Z,16.90
2019-03-20T22:28:26.624Z,16.90
2019-03-20T22:30:56.121Z,16.90
2019-03-20T22:34:01.216Z,16.90
2019-03-20T22:36:34.897Z,16.90
2019-03-20T22:39:40.786Z,16.90
2019-03-20T22:42:27.156Z,16.90
2019-03-20T22:45:18.069Z,16.90
2019-03-20T22:48:33.012Z,16.90
2019-03-20T22:51:37.301Z,16.90
2019-03-20T22:54:41.342Z,16.90
2019-03-20T22:57:21.980Z,17.00
2019-03-20T22:59:51.189Z,17.00
2019-03-20T23:02:34.792Z,17.10
2019-03-20T23:05:04.041Z,17.10
2019-03-20T23:07:33.545Z,17.10
2019-03-20T23:10:02.756Z,17.10
2019-03-20T23:12:32.247Z,17.10
2019-03-20T23:15:01.488Z,17.10
2019-03-20T23:17:30.697Z,17.10
2019-03-20T23:20:00.442Z,17.10
2019-03-20T23:22:29.777Z,17.10
2019-03-20T23:24:59.017Z,17.10
2019-03-20T23:27:29.832Z,17.10
2019-03-20T23:29:59.424Z,17.10
2019-03-20T23:32:29.265Z,17.10
2019-03-20T23:34:58.816Z,17.10
2019-03-20T23:37:28.036Z,17.00
2019-03-20T23:39:57.297Z,17.00
2019-03-20T23:42:27.050Z,17.00
2019-03-20T23:44:56.196Z,17.00
2019-03-20T23:47:33.579Z,16.90
2019-03-20T23:50:02.789Z,17.00
2019-03-20T23:52:32.304Z,17.00
2019-03-20T23:55:01.437Z,17.00
2019-03-20T23:57:30.925Z,17.00
